createdAt,value
2023-03-19T00:02:20.572Z,11.70
2023-03-19T00:04:47.246Z,11.70
2023-03-19T00:07:14.580Z,11.60
2023-03-19T00:09:41.478Z,11.60
2023-03-19T00:12:08.523Z,11.60
2023-03-19T00:14:35.526Z,11.60
2023-03-19T00:17:02.247Z,11.50
2023-03-19T00:19:29.216Z,11.50
2023-03-19T00:21:56.260Z,11.50
2023-03-19T00:24:22.921Z,11.40
2023-03-19T00:26:49.574Z,11.40
2023-03-19T00:29:16.457Z,11.30
2023-03-19T00:31:43.042Z,11.30
2023-03-19T00:34:09.956Z,11.30
2023-03-19T00:36:37.191Z,11.30
2023-03-19T00:39:04.339Z,11.30
2023-03-19T00:41:30.953Z,11.20
2023-03-19T00:43:58.042Z,11.20
2023-03-19T00:46:25.467Z,11.10
2023-03-19T00:48:55.416Z,11.10
2023-03-19T00:51:23.359Z,11.10
2023-03-19T00:53:50.989Z,11.10
2023-03-19T00:56:18.342Z,11.10
2023-03-19T00:58:45.200Z,11.20
2023-03-19T01:01:12.830Z,11.10
2023-03-19T01:03:39.504Z,11.00
2023-03-19T01:06:06.664Z,11.00
2023-03-19T01:08:33.629Z,11.00
2023-03-19T01:11:07.550Z,10.90
2023-03-19T01:13:34.230Z,10.90
2023-03-19T01:16:00.894Z,11.00
2023-03-19T01:18:27.506Z,11.00
2023-03-19T01:20:54.135Z,11.00
2023-03-19T01:23:20.922Z,11.00
2023-03-19T01:25:47.707Z,11.00
2023-03-19T01:28:14.404Z,10.90
2023-03-19T01:30:41.096Z,10.80
2023-03-19T01:33:08.142Z,10.80
2023-03-19T01:35:35.027Z,10.80
2023-03-19T01:38:01.629Z,10.80
2023-03-19T01:40:28.382Z,10.80
2023-03-19T01:43:12.543Z,10.80
2023-03-19T01:45:40.580Z,10.80
2023-03-19T01:48:08.984Z,10.80
2023-03-19T01:50:43.392Z,10.80
2023-03-19T01:53:12.685Z,10.80
2023-03-19T01:55:40.714Z,10.80
2023-03-19T01:58:07.729Z,10.80
2023-03-19T02:00:38.301Z,10.70
2023-03-19T02:03:05.304Z,10.70
2023-03-19T02:05:32.924Z,10.70
2023-03-19T02:08:01.970Z,10.60
2023-03-19T02:10:29.477Z,10.70
2023-03-19T02:12:56.269Z,10.70
2023-03-19T02:15:22.958Z,10.70
2023-03-19T02:17:49.809Z,10.70
2023-03-19T02:20:35.163Z,10.70
2023-03-19T02:23:01.837Z,10.80
2023-03-19T02:25:31.003Z,10.80
2023-03-19T02:27:57.686Z,10.80
2023-03-19T02:30:28.898Z,10.80
2023-03-19T02:32:55.539Z,10.80
2023-03-19T02:35:22.166Z,10.80
2023-03-19T02:37:48.820Z,10.80
2023-03-19T02:40:24.487Z,10.70
2023-03-19T02:42:51.064Z,10.80
2023-03-19T02:45:18.157Z,10.80
2023-03-19T02:47:44.734Z,10.80
2023-03-19T02:50:11.478Z,10.90
2023-03-19T02:52:38.144Z,10.90
2023-03-19T02:55:04.992Z,10.80
2023-03-19T02:57:31.593Z,10.90
2023-03-19T02:59:58.233Z,10.90
2023-03-19T03:02:24.999Z,11.00
2023-03-19T03:04:52.107Z,11.00
2023-03-19T03:07:18.733Z,11.00
2023-03-19T03:09:45.400Z,11.00
2023-03-19T03:12:12.106Z,11.00
2023-03-19T03:14:38.735Z,11.00
2023-03-19T03:17:05.371Z,11.00
2023-03-19T03:19:32.077Z,11.00
2023-03-19T03:21:58.835Z,11.00
2023-03-19T03:24:25.438Z,11.00
2023-03-19T03:26:52.082Z,11.00
2023-03-19T03:29:18.792Z,11.00
2023-03-19T03:31:45.767Z,11.00
2023-03-19T03:34:12.465Z,10.90
2023-03-19T03:36:39.173Z,10.80
2023-03-19T03:39:05.864Z,10.80
2023-03-19T03:41:33.102Z,10.80
2023-03-19T03:43:59.688Z,10.80
2023-03-19T03:46:26.360Z,10.90
2023-03-19T03:48:52.988Z,10.80
2023-03-19T03:51:19.741Z,10.80
2023-03-19T03:53:46.418Z,10.80
2023-03-19T03:56:13.247Z,10.80
2023-03-19T03:58:40.027Z,10.80
2023-03-19T04:01:07.658Z,10.70
2023-03-19T04:03:34.669Z,10.70
2023-03-19T04:06:01.396Z,10.70
2023-03-19T04:08:28.054Z,10.70
2023-03-19T04:10:54.619Z,10.60
2023-03-19T04:13:21.513Z,10.70
2023-03-19T04:15:48.615Z,10.70
2023-03-19T04:18:15.671Z,10.70
2023-03-19T04:20:42.937Z,10.70
2023-03-19T04:23:09.594Z,10.70
2023-03-19T04:25:38.845Z,10.60
2023-03-19T04:28:05.479Z,10.70
2023-03-19T04:30:35.160Z,10.60
2023-03-19T04:33:01.960Z,10.50
2023-03-19T04:35:28.667Z,10.50
2023-03-19T04:37:55.261Z,10.50
2023-03-19T04:40:21.897Z,10.50
2023-03-19T04:42:48.518Z,10.40
2023-03-19T04:45:15.392Z,10.40
2023-03-19T04:47:42.550Z,10.30
2023-03-19T04:50:09.910Z,10.20
2023-03-19T04:52:37.430Z,10.20
2023-03-19T04:55:04.926Z,10.10
2023-03-19T04:57:31.541Z,10.10
2023-03-19T04:59:58.125Z,10.20
2023-03-19T05:02:24.776Z,10.20
2023-03-19T05:04:51.731Z,10.20
2023-03-19T05:07:18.325Z,10.20
2023-03-19T05:09:46.250Z,10.30
2023-03-19T05:12:13.072Z,10.30
2023-03-19T05:14:39.688Z,10.40
2023-03-19T05:17:06.311Z,10.40
2023-03-19T05:19:34.080Z,10.40
2023-03-19T05:22:00.670Z,10.30
2023-03-19T05:24:27.264Z,10.30
2023-03-19T05:26:53.839Z,10.30
2023-03-19T05:29:20.569Z,10.30
2023-03-19T05:31:48.084Z,10.20
2023-03-19T05:34:14.776Z,10.20
2023-03-19T05:36:41.721Z,10.20
2023-03-19T05:39:08.393Z,10.20
2023-03-19T05:41:35.006Z,10.10
2023-03-19T05:44:02.769Z,10.10
2023-03-19T05:46:29.466Z,10.20
2023-03-19T05:48:56.034Z,10.10
2023-03-19T05:51:22.613Z,10.10
2023-03-19T05:53:49.265Z,10.10
2023-03-19T05:56:15.913Z,10.10
2023-03-19T05:58:42.622Z,10.10
2023-03-19T06:01:09.751Z,10.20
2023-03-19T06:03:36.434Z,10.20
2023-03-19T06:06:03.154Z,10.10
2023-03-19T06:08:29.925Z,10.20
2023-03-19T06:10:56.552Z,10.30
2023-03-19T06:13:23.326Z,10.40
2023-03-19T06:15:50.026Z,10.50
2023-03-19T06:18:17.116Z,10.50
2023-03-19T06:20:44.168Z,10.60
2023-03-19T06:23:10.762Z,10.70
2023-03-19T06:25:37.481Z,10.70
2023-03-19T06:28:04.667Z,10.80
2023-03-19T06:30:31.766Z,11.00
2023-03-19T06:32:58.477Z,11.10
2023-03-19T06:35:25.224Z,11.20
2023-03-19T06:37:52.572Z,11.40
2023-03-19T06:40:19.348Z,11.60
2023-03-19T06:42:47.113Z,11.70
2023-03-19T06:45:16.458Z,11.70
2023-03-19T06:47:43.477Z,11.50
2023-03-19T06:50:11.028Z,11.30
2023-03-19T06:52:38.006Z,11.20
2023-03-19T06:55:05.412Z,11.10
2023-03-19T06:57:32.030Z,11.10
2023-03-19T07:00:26.477Z,11.00
2023-03-19T07:02:53.061Z,10.90
2023-03-19T07:05:19.639Z,10.70
2023-03-19T07:07:46.342Z,10.70
2023-03-19T07:10:13.046Z,10.70
2023-03-19T07:12:39.665Z,10.60
2023-03-19T07:15:06.724Z,10.50
2023-03-19T07:17:33.423Z,10.50
2023-03-19T07:20:00.193Z,10.50
2023-03-19T07:22:26.775Z,10.50
2023-03-19T07:24:53.359Z,10.60
2023-03-19T07:27:19.957Z,10.40
2023-03-19T07:29:46.518Z,10.30
2023-03-19T07:32:13.261Z,10.30
2023-03-19T07:34:39.910Z,10.30
2023-03-19T07:37:06.651Z,10.20
2023-03-19T07:39:34.001Z,10.30
2023-03-19T07:42:00.736Z,10.40
2023-03-19T07:44:27.325Z,10.50
2023-03-19T07:46:54.002Z,10.60
2023-03-19T07:49:20.862Z,10.70
2023-03-19T07:51:47.454Z,10.80
2023-03-19T07:54:14.030Z,10.80
2023-03-19T07:56:40.605Z,10.90
2023-03-19T07:59:07.287Z,11.10
2023-03-19T08:01:33.874Z,11.20
2023-03-19T08:04:00.730Z,11.30
2023-03-19T08:06:27.329Z,11.30
2023-03-19T08:08:53.896Z,11.40
2023-03-19T08:11:20.689Z,11.30
2023-03-19T08:13:47.279Z,11.40
2023-03-19T08:16:13.924Z,11.40
2023-03-19T08:18:40.628Z,11.40
2023-03-19T08:21:07.544Z,11.30
2023-03-19T08:23:35.334Z,11.20
2023-03-19T08:26:02.101Z,11.10
2023-03-19T08:28:28.682Z,11.10
2023-03-19T08:30:56.163Z,11.10
2023-03-19T08:33:22.881Z,11.10
2023-03-19T08:35:49.561Z,11.00
2023-03-19T08:38:16.259Z,10.90
2023-03-19T08:40:42.832Z,10.90
2023-03-19T08:43:09.460Z,10.80
2023-03-19T08:45:36.180Z,10.80
2023-03-19T08:48:03.039Z,10.90
2023-03-19T08:50:29.798Z,11.00
2023-03-19T08:52:57.566Z,11.00
2023-03-19T08:55:24.186Z,11.00
2023-03-19T08:57:51.093Z,11.00
2023-03-19T09:00:17.910Z,11.00
2023-03-19T09:02:44.543Z,11.00
2023-03-19T09:05:11.202Z,11.10
2023-03-19T09:07:37.830Z,11.10
2023-03-19T09:10:04.596Z,11.10
2023-03-19T09:12:31.242Z,11.10
2023-03-19T09:14:57.866Z,11.10
2023-03-19T09:17:24.703Z,11.10
2023-03-19T09:19:51.325Z,11.20
2023-03-19T09:22:17.878Z,11.20
2023-03-19T09:24:44.493Z,11.20
2023-03-19T09:27:11.564Z,11.30
2023-03-19T09:29:38.210Z,11.40
2023-03-19T09:32:04.942Z,11.50
2023-03-19T09:34:31.591Z,11.60
2023-03-19T09:36:58.420Z,11.60
2023-03-19T09:39:25.249Z,11.60
2023-03-19T09:42:09.916Z,11.70
2023-03-19T09:44:40.922Z,11.80
2023-03-19T09:47:16.853Z,12.00
2023-03-19T09:49:44.353Z,12.20
2023-03-19T09:52:28.937Z,12.40
2023-03-19T09:54:58.277Z,12.80
2023-03-19T09:57:25.136Z,13.30
2023-03-19T09:59:53.132Z,13.70
2023-03-19T10:02:34.942Z,13.80
2023-03-19T10:05:06.268Z,13.80
2023-03-19T10:07:45.160Z,13.80
2023-03-19T10:10:31.114Z,13.70
2023-03-19T10:13:16.583Z,13.60
2023-03-19T10:15:44.612Z,13.60
2023-03-19T10:18:12.215Z,13.70
2023-03-19T10:20:38.770Z,13.80
2023-03-19T10:23:24.025Z,14.00
2023-03-19T10:25:52.482Z,14.10
2023-03-19T10:28:21.866Z,14.20
2023-03-19T10:31:07.132Z,14.40
2023-03-19T10:33:43.271Z,14.50
2023-03-19T10:36:12.409Z,14.50
2023-03-19T10:38:41.296Z,14.40
2023-03-19T10:41:18.028Z,14.30
2023-03-19T10:43:52.647Z,14.30
2023-03-19T10:46:19.832Z,14.10
2023-03-19T10:48:46.518Z,14.20
2023-03-19T10:51:14.999Z,14.30
2023-03-19T10:53:41.659Z,14.30
2023-03-19T10:56:20.156Z,14.40
2023-03-19T10:58:59.355Z,14.40
2023-03-19T11:01:32.106Z,14.40
2023-03-19T11:03:59.250Z,14.40
2023-03-19T11:06:27.999Z,14.30
2023-03-19T11:08:59.282Z,14.30
2023-03-19T11:11:32.677Z,14.30
2023-03-19T11:14:05.566Z,14.30
2023-03-19T11:16:33.508Z,14.20
2023-03-19T11:19:00.150Z,14.30
2023-03-19T11:21:30.488Z,14.10
2023-03-19T11:24:01.206Z,14.10
2023-03-19T11:26:28.696Z,14.20
2023-03-19T11:29:01.630Z,14.00
2023-03-19T11:31:34.261Z,13.90
2023-03-19T11:34:01.043Z,13.80
2023-03-19T11:36:31.016Z,13.90
2023-03-19T11:39:03.446Z,13.90
2023-03-19T11:41:37.212Z,14.10
2023-03-19T11:44:12.816Z,14.30
2023-03-19T11:46:44.396Z,14.40
2023-03-19T11:49:20.376Z,14.70
2023-03-19T11:51:51.773Z,14.70
2023-03-19T11:54:22.954Z,14.80
2023-03-19T11:56:59.721Z,15.00
2023-03-19T11:59:34.585Z,14.80
2023-03-19T12:02:13.438Z,14.60
2023-03-19T12:04:49.321Z,14.40
2023-03-19T12:07:31.604Z,14.30
2023-03-19T12:10:27.837Z,14.40
2023-03-19T12:13:05.686Z,14.40
2023-03-19T12:15:47.332Z,14.50
2023-03-19T12:18:16.836Z,14.50
2023-03-19T12:20:52.696Z,14.60
2023-03-19T12:23:34.000Z,14.70
2023-03-19T12:26:06.963Z,15.00
2023-03-19T12:28:35.781Z,15.10
2023-03-19T12:31:16.523Z,15.50
2023-03-19T12:33:48.772Z,16.20
2023-03-19T12:36:18.906Z,16.80
2023-03-19T12:38:54.806Z,17.50
2023-03-19T12:41:26.006Z,18.50
2023-03-19T12:43:58.773Z,20.10
2023-03-19T12:46:35.957Z,22.50
2023-03-19T12:49:02.538Z,24.60
2023-03-19T12:51:33.798Z,25.70
2023-03-19T12:54:20.837Z,26.10
2023-03-19T12:57:08.506Z,26.60
2023-03-19T12:59:55.609Z,27.20
2023-03-19T13:02:31.595Z,26.30
2023-03-19T13:05:07.385Z,24.70
2023-03-19T13:07:49.268Z,24.70
2023-03-19T13:10:19.736Z,25.10
2023-03-19T13:12:47.830Z,25.50
2023-03-19T13:15:14.615Z,25.70
2023-03-19T13:17:49.535Z,25.50
2023-03-19T13:20:35.094Z,25.60
2023-03-19T13:23:03.778Z,25.70
2023-03-19T13:25:36.992Z,25.50
2023-03-19T13:28:07.227Z,25.40
2023-03-19T13:30:33.974Z,24.60
2023-03-19T13:33:06.238Z,24.20
2023-03-19T13:35:46.752Z,23.50
2023-03-19T13:38:32.797Z,22.60
2023-03-19T13:41:00.287Z,21.30
2023-03-19T13:43:29.805Z,20.60
2023-03-19T13:46:20.017Z,19.90
2023-03-19T13:48:46.641Z,19.40
2023-03-19T13:51:17.877Z,19.30
2023-03-19T13:54:03.570Z,19.30
2023-03-19T13:56:33.133Z,19.30
2023-03-19T13:59:15.030Z,19.40
2023-03-19T14:01:44.761Z,19.50
2023-03-19T14:04:18.908Z,19.40
2023-03-19T14:06:47.770Z,19.50
2023-03-19T14:09:29.659Z,19.30
2023-03-19T14:12:08.490Z,19.20
2023-03-19T14:14:39.177Z,19.00
2023-03-19T14:17:13.304Z,19.00
2023-03-19T14:19:40.929Z,19.20
2023-03-19T14:22:19.651Z,20.00
2023-03-19T14:25:02.083Z,20.90
2023-03-19T14:27:30.743Z,21.90
2023-03-19T14:30:00.179Z,22.40
2023-03-19T14:32:32.174Z,22.50
2023-03-19T14:34:59.267Z,23.10
2023-03-19T14:37:29.309Z,23.30
2023-03-19T14:39:59.525Z,22.60
2023-03-19T14:42:27.844Z,21.80
2023-03-19T14:45:30.342Z,21.40
2023-03-19T14:48:17.213Z,21.60
2023-03-19T14:50:56.128Z,22.40
2023-03-19T14:53:39.129Z,22.60
2023-03-19T14:56:14.324Z,23.30
2023-03-19T14:58:51.018Z,23.80
2023-03-19T15:01:18.476Z,24.10
2023-03-19T15:03:45.451Z,24.40
2023-03-19T15:06:13.520Z,24.30
2023-03-19T15:08:40.801Z,23.90
2023-03-19T15:11:07.490Z,23.50
2023-03-19T15:13:34.094Z,23.50
2023-03-19T15:16:00.795Z,23.10
2023-03-19T15:18:27.797Z,22.70
2023-03-19T15:20:55.365Z,22.10
2023-03-19T15:23:27.752Z,21.70
2023-03-19T15:25:57.557Z,21.20
2023-03-19T15:28:25.597Z,20.90
2023-03-19T15:31:29.905Z,20.60
2023-03-19T15:33:57.532Z,20.80
2023-03-19T15:36:30.131Z,20.80
2023-03-19T15:38:56.897Z,20.50
2023-03-19T15:41:27.792Z,20.20
2023-03-19T15:43:54.766Z,19.80
2023-03-19T15:46:24.413Z,19.50
2023-03-19T15:49:02.808Z,19.30
2023-03-19T15:51:29.464Z,19.20
2023-03-19T15:53:56.280Z,19.00
2023-03-19T15:56:23.928Z,18.80
2023-03-19T15:58:53.261Z,18.60
2023-03-19T16:01:20.315Z,18.40
2023-03-19T16:04:06.972Z,18.20
2023-03-19T16:06:38.709Z,18.00
2023-03-19T16:09:17.377Z,17.80
2023-03-19T16:11:44.921Z,17.70
2023-03-19T16:14:14.272Z,17.60
2023-03-19T16:16:41.587Z,17.50
2023-03-19T16:19:27.085Z,17.40
2023-03-19T16:21:53.703Z,17.30
2023-03-19T16:24:37.392Z,17.20
2023-03-19T16:27:05.757Z,17.20
2023-03-19T16:29:39.824Z,17.10
2023-03-19T16:32:14.266Z,17.00
2023-03-19T16:34:46.235Z,16.90
2023-03-19T16:37:28.148Z,16.70
2023-03-19T16:39:55.948Z,16.70
2023-03-19T16:42:25.250Z,16.60
2023-03-19T16:44:51.845Z,16.50
2023-03-19T16:47:18.537Z,16.40
2023-03-19T16:49:46.817Z,16.30
2023-03-19T16:52:24.021Z,16.20
2023-03-19T16:54:51.766Z,16.10
2023-03-19T16:57:18.845Z,16.00
2023-03-19T16:59:46.629Z,15.90
2023-03-19T17:02:14.090Z,15.80
2023-03-19T17:04:40.915Z,15.80
2023-03-19T17:07:07.887Z,15.70
2023-03-19T17:09:34.747Z,15.50
2023-03-19T17:12:01.931Z,15.50
2023-03-19T17:14:28.970Z,15.40
2023-03-19T17:16:56.839Z,15.30
2023-03-19T17:19:25.599Z,15.20
2023-03-19T17:21:54.409Z,15.20
2023-03-19T17:24:26.187Z,15.00
2023-03-19T17:26:52.986Z,14.90
2023-03-19T17:29:20.784Z,14.90
2023-03-19T17:31:47.609Z,14.80
2023-03-19T17:34:18.743Z,14.70
2023-03-19T17:36:48.349Z,14.60
2023-03-19T17:39:14.919Z,14.50
2023-03-19T17:41:41.487Z,14.40
2023-03-19T17:44:08.564Z,14.40
2023-03-19T17:46:39.529Z,14.30
2023-03-19T17:49:07.329Z,14.20
2023-03-19T17:51:33.954Z,14.10
2023-03-19T17:54:00.593Z,14.10
2023-03-19T17:56:27.196Z,14.00
2023-03-19T17:58:53.843Z,14.00
2023-03-19T18:01:25.438Z,13.90
2023-03-19T18:03:53.877Z,13.90
2023-03-19T18:06:24.986Z,13.80
2023-03-19T18:08:52.019Z,13.80
2023-03-19T18:11:18.704Z,13.80
2023-03-19T18:13:46.088Z,13.80
2023-03-19T18:16:28.168Z,13.80
2023-03-19T18:18:56.243Z,13.80
2023-03-19T18:21:23.079Z,13.90
2023-03-19T18:23:50.183Z,13.80
2023-03-19T18:26:17.116Z,13.90
2023-03-19T18:28:44.519Z,13.90
2023-03-19T18:31:16.656Z,13.90
2023-03-19T18:33:44.953Z,13.90
2023-03-19T18:36:17.563Z,13.90
2023-03-19T18:38:44.227Z,14.00
2023-03-19T18:41:16.508Z,14.00
2023-03-19T18:43:43.077Z,14.10
2023-03-19T18:46:12.432Z,14.10
2023-03-19T18:48:39.201Z,14.20
2023-03-19T18:51:05.885Z,14.20
2023-03-19T18:53:32.455Z,14.20
2023-03-19T18:55:59.018Z,14.20
2023-03-19T18:58:27.712Z,14.20
2023-03-19T19:00:54.415Z,14.20
2023-03-19T19:03:22.979Z,14.30
2023-03-19T19:05:49.746Z,14.30
2023-03-19T19:08:17.903Z,14.20
2023-03-19T19:10:49.234Z,14.20
2023-03-19T19:13:18.732Z,14.20
2023-03-19T19:15:45.716Z,14.20
2023-03-19T19:18:31.752Z,14.20
2023-03-19T19:21:00.527Z,14.10
2023-03-19T19:23:28.100Z,14.10
2023-03-19T19:25:55.368Z,14.10
2023-03-19T19:28:27.576Z,14.00
2023-03-19T19:30:57.190Z,14.00
2023-03-19T19:33:25.172Z,13.90
2023-03-19T19:35:52.506Z,13.90
2023-03-19T19:38:19.204Z,13.90
2023-03-19T19:40:47.570Z,13.90
2023-03-19T19:43:21.910Z,13.90
2023-03-19T19:45:49.382Z,13.90
2023-03-19T19:48:17.283Z,13.90
2023-03-19T19:50:46.876Z,13.90
2023-03-19T19:53:13.888Z,13.90
2023-03-19T19:55:41.332Z,13.90
2023-03-19T19:58:12.909Z,13.90
2023-03-19T20:00:40.134Z,13.80
2023-03-19T20:03:16.350Z,13.90
2023-03-19T20:05:42.936Z,13.80
2023-03-19T20:08:11.801Z,13.90
2023-03-19T20:10:39.307Z,13.80
2023-03-19T20:13:06.108Z,13.80
2023-03-19T20:15:34.332Z,13.80
2023-03-19T20:18:02.235Z,13.80
2023-03-19T20:20:29.882Z,13.90
2023-03-19T20:22:56.722Z,13.90
2023-03-19T20:25:24.405Z,13.90
2023-03-19T20:27:53.231Z,13.90
2023-03-19T20:30:24.675Z,13.90
2023-03-19T20:32:51.849Z,13.90
2023-03-19T20:35:20.343Z,13.90
2023-03-19T20:37:47.346Z,13.90
2023-03-19T20:40:14.259Z,13.80
2023-03-19T20:42:41.370Z,13.80
2023-03-19T20:45:13.661Z,13.80
2023-03-19T20:47:40.717Z,13.80
2023-03-19T20:50:09.586Z,13.70
2023-03-19T20:52:37.557Z,13.70
2023-03-19T20:55:04.259Z,13.70
2023-03-19T20:57:31.014Z,13.70
2023-03-19T21:00:01.777Z,13.70
2023-03-19T21:02:28.513Z,13.70
2023-03-19T21:04:57.322Z,13.70
2023-03-19T21:07:29.417Z,13.70
2023-03-19T21:09:59.479Z,13.70
2023-03-19T21:12:29.167Z,13.70
2023-03-19T21:14:56.559Z,13.70
2023-03-19T21:17:23.659Z,13.70
2023-03-19T21:19:50.350Z,13.70
2023-03-19T21:22:20.986Z,13.70
2023-03-19T21:24:48.385Z,13.70
2023-03-19T21:27:25.688Z,13.60
2023-03-19T21:29:53.012Z,13.70
2023-03-19T21:32:20.079Z,13.70
2023-03-19T21:34:48.978Z,13.60
2023-03-19T21:37:18.503Z,13.60
2023-03-19T21:39:46.181Z,13.60
2023-03-19T21:42:17.535Z,13.70
2023-03-19T21:44:45.934Z,13.60
2023-03-19T21:47:18.784Z,13.70
2023-03-19T21:49:45.477Z,13.60
2023-03-19T21:52:15.862Z,13.60
2023-03-19T21:54:42.493Z,13.60
2023-03-19T21:57:12.341Z,13.60
2023-03-19T21:59:40.229Z,13.50
2023-03-19T22:02:29.844Z,13.50
2023-03-19T22:04:56.452Z,13.50
2023-03-19T22:07:23.109Z,13.50
2023-03-19T22:09:49.733Z,13.40
2023-03-19T22:12:27.281Z,13.40
2023-03-19T22:14:54.506Z,13.30
2023-03-19T22:17:23.073Z,13.30
2023-03-19T22:19:49.708Z,13.20
2023-03-19T22:22:16.301Z,13.20
2023-03-19T22:24:42.948Z,13.10
2023-03-19T22:27:14.705Z,13.10
2023-03-19T22:29:41.698Z,13.10
2023-03-19T22:32:15.737Z,13.10
2023-03-19T22:34:42.648Z,13.00
2023-03-19T22:37:22.092Z,13.00
2023-03-19T22:39:48.743Z,13.00
2023-03-19T22:42:15.374Z,13.00
2023-03-19T22:44:41.978Z,13.00
2023-03-19T22:47:16.383Z,13.00
2023-03-19T22:49:44.927Z,13.00
2023-03-19T22:52:12.992Z,13.00
2023-03-19T22:54:39.988Z,13.00
2023-03-19T22:57:06.943Z,12.90
2023-03-19T22:59:33.701Z,12.90
2023-03-19T23:02:00.345Z,12.90
2023-03-19T23:04:28.775Z,12.90
2023-03-19T23:06:56.463Z,12.90
2023-03-19T23:09:24.457Z,12.90
2023-03-19T23:11:51.551Z,12.90
2023-03-19T23:14:29.005Z,12.90
2023-03-19T23:19:25.908Z,12.80
2023-03-19T23:21:52.483Z,12.80
2023-03-19T23:24:19.727Z,12.80
2023-03-19T23:26:47.592Z,12.80
2023-03-19T23:29:29.411Z,12.70
2023-03-19T23:31:58.502Z,12.70
2023-03-19T23:34:26.177Z,12.70
2023-03-19T23:36:53.389Z,12.70
2023-03-19T23:39:21.201Z,12.70
2023-03-19T23:41:49.539Z,12.60
2023-03-19T23:44:18.286Z,12.60
2023-03-19T23:46:46.016Z,12.60
2023-03-19T23:49:13.913Z,12.50
2023-03-19T23:51:41.652Z,12.50
2023-03-19T23:54:26.431Z,12.50
2023-03-19T23:56:53.392Z,12.40
2023-03-19T23:59:20.000Z,12.40
